Time,TemperatureF,DewpointF,PressureIn,WindDirection,WindDirectionDegrees,WindSpeedMPH,WindSpeedGustMPH,Humidity,HourlyPrecipIn,Conditions,Clouds,dailyrainin,SoftwareType,DateUTC
2013-10-25 00:02:00,28.8,20.9,30.27,NNW,329,2.0,3.0,72,0.00,,---,0.00,VWS V14.01,2013-10-25 06:02:00,
2013-10-25 00:07:00,28.9,20.7,30.27,NNW,329,4.0,5.0,71,0.00,,---,0.00,VWS V14.01,2013-10-25 06:07:00,
2013-10-25 00:12:00,29.9,20.6,30.27,NNW,329,0.0,0.0,68,0.00,,---,0.00,VWS V14.01,2013-10-25 06:12:00,
2013-10-25 00:17:00,30.5,20.9,30.27,NNW,329,0.0,0.0,67,0.00,,---,0.00,VWS V14.01,2013-10-25 06:17:00,
2013-10-25 00:22:00,30.7,21.1,30.27,NNW,329,0.0,0.0,67,0.00,,---,0.00,VWS V14.01,2013-10-25 06:22:00,
2013-10-25 00:27:00,30.5,20.5,30.27,NNW,329,0.0,0.0,66,0.00,,---,0.00,VWS V14.01,2013-10-25 06:27:00,
2013-10-25 00:32:00,30.3,21.0,30.27,NNW,329,0.0,0.0,68,0.00,,---,0.00,VWS V14.01,2013-10-25 06:32:00,
2013-10-25 00:37:00,30.0,20.7,30.28,NNW,329,2.0,3.0,68,0.00,,---,0.00,VWS V14.01,2013-10-25 06:37:00,
2013-10-25 00:43:00,29.5,21.3,30.28,NNW,329,0.0,0.0,71,0.00,,---,0.00,VWS V14.01,2013-10-25 06:43:00,
2013-10-25 00:48:00,29.2,21.0,30.27,NNW,329,0.0,0.0,71,0.00,,---,0.00,VWS V14.01,2013-10-25 06:48:00,
2013-10-25 00:53:00,29.2,21.0,30.27,NNW,329,0.0,0.0,71,0.00,,---,0.00,VWS V14.01,2013-10-25 06:53:00,
2013-10-25 00:58:00,29.4,21.2,30.27,NNW,329,0.0,1.0,71,0.00,,---,0.00,VWS V14.01,2013-10-25 06:58:00,
2013-10-25 01:03:00,29.8,21.9,30.27,NNW,329,4.0,4.0,72,0.00,,---,0.00,VWS V14.01,2013-10-25 07:03:00,
2013-10-25 01:08:00,29.5,22.2,30.27,NNW,329,2.0,3.0,74,0.00,,---,0.00,VWS V14.01,2013-10-25 07:08:00,
2013-10-25 01:13:00,28.9,22.0,30.27,NNW,329,2.0,2.0,75,0.00,,---,0.00,VWS V14.01,2013-10-25 07:13:00,
2013-10-25 01:18:00,28.6,22.0,30.27,NNW,329,0.0,0.0,76,0.00,,---,0.00,VWS V14.01,2013-10-25 07:18:00,
2013-10-25 01:23:00,28.7,22.1,30.27,NNW,329,0.0,0.0,76,0.00,,---,0.00,VWS V14.01,2013-10-25 07:23:00,
2013-10-25 01:28:00,28.7,22.1,30.27,NNW,329,1.0,3.0,76,0.00,,---,0.00,VWS V14.01,2013-10-25 07:28:00,
2013-10-25 01:33:00,28.7,22.1,30.27,NNW,329,3.0,4.0,76,0.00,,---,0.00,VWS V14.01,2013-10-25 07:33:00,
2013-10-25 01:38:00,29.0,22.1,30.27,NNW,329,4.0,5.0,75,0.00,,---,0.00,VWS V14.01,2013-10-25 07:38:00,
2013-10-25 01:43:00,29.2,22.3,30.28,NNW,329,0.0,0.0,75,0.00,,---,0.00,VWS V14.01,2013-10-25 07:43:00,
2013-10-25 01:48:00,29.1,21.9,30.27,NNW,329,2.0,2.0,74,0.00,,---,0.00,VWS V14.01,2013-10-25 07:48:00,
2013-10-25 01:53:00,28.7,22.4,30.27,NNW,329,3.0,3.0,77,0.00,,---,0.00,VWS V14.01,2013-10-25 07:53:00,
2013-10-25 01:58:00,28.1,22.4,30.27,NNW,329,3.0,4.0,79,0.00,,---,0.00,VWS V14.01,2013-10-25 07:58:00,
2013-10-25 02:03:00,28.0,21.7,30.28,NNW,329,5.0,5.0,77,0.00,,---,0.00,VWS V14.01,2013-10-25 08:03:00,
2013-10-25 02:08:00,28.0,21.4,30.28,NNW,329,0.0,0.0,76,0.00,,---,0.00,VWS V14.01,2013-10-25 08:08:00,
2013-10-25 02:13:00,28.5,21.9,30.28,NNW,329,2.0,4.0,76,0.00,,---,0.00,VWS V14.01,2013-10-25 08:13:00,
2013-10-25 02:18:00,28.9,22.3,30.28,NNW,329,4.0,4.0,76,0.00,,---,0.00,VWS V14.01,2013-10-25 08:18:00,
2013-10-25 02:23:00,28.9,22.0,30.28,NNW,329,3.0,4.0,75,0.00,,---,0.00,VWS V14.01,2013-10-25 08:23:00,
2013-10-25 02:28:00,28.7,21.8,30.28,NNW,329,4.0,4.0,75,0.00,,---,0.00,VWS V14.01,2013-10-25 08:28:00,
2013-10-25 02:33:00,28.6,21.7,30.28,NNW,329,2.0,3.0,75,0.00,,---,0.00,VWS V14.01,2013-10-25 08:33:00,
2013-10-25 02:38:00,28.5,22.2,30.28,NNW,329,2.0,2.0,77,0.00,,---,0.00,VWS V14.01,2013-10-25 08:38:00,
2013-10-25 02:43:00,28.3,22.0,30.28,NNW,329,1.0,3.0,77,0.00,,---,0.00,VWS V14.01,2013-10-25 08:43:00,
2013-10-25 02:48:00,28.2,21.9,30.28,NNW,329,0.0,0.0,77,0.00,,---,0.00,VWS V14.01,2013-10-25 08:48:00,
2013-10-25 02:53:00,28.1,21.8,30.28,NNW,329,0.0,0.0,77,0.00,,---,0.00,VWS V14.01,2013-10-25 08:53:00,
2013-10-25 02:58:00,28.1,21.8,30.28,NNW,329,0.0,0.0,77,0.00,,---,0.00,VWS V14.01,2013-10-25 08:58:00,
2013-10-25 03:03:00,28.0,21.7,30.28,NNW,329,0.0,0.0,77,0.00,,---,0.00,VWS V14.01,2013-10-25 09:03:00,
2013-10-25 03:08:00,28.4,22.1,30.28,NNW,329,3.0,3.0,77,0.00,,---,0.00,VWS V14.01,2013-10-25 09:08:00,
2013-10-25 03:13:00,28.9,22.3,30.28,NNW,329,0.0,0.0,76,0.00,,---,0.00,VWS V14.01,2013-10-25 09:13:00,
2013-10-25 03:18:00,29.1,22.5,30.28,NNW,329,0.0,0.0,76,0.00,,---,0.00,VWS V14.01,2013-10-25 09:18:00,
2013-10-25 03:23:00,29.1,22.2,30.28,NNW,329,0.0,0.0,75,0.00,,---,0.00,VWS V14.01,2013-10-25 09:23:00,
2013-10-25 03:28:00,29.1,22.5,30.28,NNW,329,1.0,1.0,76,0.00,,---,0.00,VWS V14.01,2013-10-25 09:28:00,
2013-10-25 03:33:00,28.8,22.2,30.28,NNW,329,0.0,0.0,76,0.00,,---,0.00,VWS V14.01,2013-10-25 09:33:00,
2013-10-25 03:38:00,28.7,22.1,30.28,NNW,329,0.0,0.0,76,0.00,,---,0.00,VWS V14.01,2013-10-25 09:38:00,
2013-10-25 03:43:00,28.1,21.8,30.27,NNW,329,1.0,1.0,77,0.00,,---,0.00,VWS V14.01,2013-10-25 09:43:00,
2013-10-25 03:48:00,27.7,21.8,30.27,NNW,329,0.0,0.0,78,0.00,,---,0.00,VWS V14.01,2013-10-25 09:48:00,
2013-10-25 03:53:00,27.6,21.4,30.27,NNW,329,0.0,0.0,77,0.00,,---,0.00,VWS V14.01,2013-10-25 09:53:00,
2013-10-25 03:58:00,27.5,21.2,30.28,NNW,329,1.0,2.0,77,0.00,,---,0.00,VWS V14.01,2013-10-25 09:58:00,
2013-10-25 04:03:00,27.7,21.8,30.28,NNW,329,2.0,3.0,78,0.00,,---,0.00,VWS V14.01,2013-10-25 10:03:00,
2013-10-25 04:08:00,27.6,21.6,30.28,NNW,329,0.0,0.0,78,0.00,,---,0.00,VWS V14.01,2013-10-25 10:08:00,
2013-10-25 04:13:00,27.4,21.1,30.27,NNW,329,3.0,3.0,77,0.00,,---,0.00,VWS V14.01,2013-10-25 10:13:00,
2013-10-25 04:18:00,27.2,21.0,30.27,NNW,329,5.0,5.0,77,0.00,,---,0.00,VWS V14.01,2013-10-25 10:18:00,
2013-10-25 04:23:00,27.3,21.4,30.27,NNW,329,0.0,0.0,78,0.00,,---,0.00,VWS V14.01,2013-10-25 10:23:00,
2013-10-25 04:28:00,27.2,21.0,30.27,NNW,329,0.0,0.0,77,0.00,,---,0.00,VWS V14.01,2013-10-25 10:28:00,
2013-10-25 04:34:00,27.2,21.3,30.27,NNW,329,0.0,0.0,78,0.00,,---,0.00,VWS V14.01,2013-10-25 10:34:00,
2013-10-25 04:39:00,27.1,21.5,30.27,NNW,329,0.0,0.0,79,0.00,,---,0.00,VWS V14.01,2013-10-25 10:39:00,
2013-10-25 04:44:00,26.8,21.2,30.27,NNW,329,0.0,0.0,79,0.00,,---,0.00,VWS V14.01,2013-10-25 10:44:00,
2013-10-25 04:49:00,26.7,21.1,30.27,NNW,329,0.0,0.0,79,0.00,,---,0.00,VWS V14.01,2013-10-25 10:49:00,
2013-10-25 04:54:00,26.6,21.3,30.27,NNW,329,0.0,0.0,80,0.00,,---,0.00,VWS V14.01,2013-10-25 10:54:00,
2013-10-25 04:59:00,26.4,20.8,30.27,NNW,329,2.0,3.0,79,0.00,,---,0.00,VWS V14.01,2013-10-25 10:59:00,
2013-10-25 05:04:00,26.2,20.3,30.27,NNW,329,0.0,0.0,78,0.00,,---,0.00,VWS V14.01,2013-10-25 11:04:00,
2013-10-25 05:09:00,26.1,20.5,30.27,NNW,329,2.0,3.0,79,0.00,,---,0.00,VWS V14.01,2013-10-25 11:09:00,
2013-10-25 05:14:00,26.2,20.6,30.27,NNW,329,0.0,0.0,79,0.00,,---,0.00,VWS V14.01,2013-10-25 11:14:00,
2013-10-25 05:19:00,26.2,20.6,30.27,NNW,329,5.0,5.0,79,0.00,,---,0.00,VWS V14.01,2013-10-25 11:19:00,
2013-10-25 05:24:00,26.2,20.9,30.27,NNW,330,9.0,9.0,80,0.00,,---,0.00,VWS V14.01,2013-10-25 11:24:00,
2013-10-25 05:29:00,25.8,20.5,30.27,NNW,330,1.0,5.0,80,0.00,,---,0.00,VWS V14.01,2013-10-25 11:29:00,
2013-10-25 05:34:00,25.7,20.7,30.27,NNW,330,0.0,2.0,81,0.00,,---,0.00,VWS V14.01,2013-10-25 11:34:00,
2013-10-25 05:39:00,25.7,21.0,30.28,NNW,330,0.0,0.0,82,0.00,,---,0.00,VWS V14.01,2013-10-25 11:39:00,
2013-10-25 05:44:00,25.6,20.9,30.28,NNW,330,0.0,1.0,82,0.00,,---,0.00,VWS V14.01,2013-10-25 11:44:00,
2013-10-25 05:49:00,25.5,20.8,30.28,NNW,330,4.0,4.0,82,0.00,,---,0.00,VWS V14.01,2013-10-25 11:49:00,
2013-10-25 05:54:00,25.6,20.9,30.28,NNW,330,0.0,0.0,82,0.00,,---,0.00,VWS V14.01,2013-10-25 11:54:00,
2013-10-25 05:59:00,25.9,21.5,30.28,NNW,330,0.0,0.0,83,0.00,,---,0.00,VWS V14.01,2013-10-25 11:59:00,
2013-10-25 06:04:00,26.2,21.5,30.28,NNW,330,2.0,2.0,82,0.00,,---,0.00,VWS V14.01,2013-10-25 12:04:00,
2013-10-25 06:09:00,26.3,21.3,30.28,NNW,330,2.0,3.0,81,0.00,,---,0.00,VWS V14.01,2013-10-25 12:09:00,
2013-10-25 06:14:00,26.0,21.3,30.28,NNW,330,0.0,0.0,82,0.00,,---,0.00,VWS V14.01,2013-10-25 12:14:00,
2013-10-25 06:19:00,25.8,21.1,30.28,NNW,330,0.0,0.0,82,0.00,,---,0.00,VWS V14.01,2013-10-25 12:19:00,
2013-10-25 06:24:00,25.6,20.6,30.28,NNW,330,0.0,0.0,81,0.00,,---,0.00,VWS V14.01,2013-10-25 12:24:00,
2013-10-25 06:29:00,25.3,20.3,30.28,NNW,330,0.0,0.0,81,0.00,,---,0.00,VWS V14.01,2013-10-25 12:29:00,
2013-10-25 06:34:00,25.2,20.5,30.28,NNW,330,2.0,2.0,82,0.00,,---,0.00,VWS V14.01,2013-10-25 12:34:00,
2013-10-25 06:39:00,25.2,20.5,30.28,NNW,330,3.0,4.0,82,0.00,,---,0.00,VWS V14.01,2013-10-25 12:39:00,
2013-10-25 06:44:00,25.3,20.9,30.28,NNW,330,6.0,6.0,83,0.00,,---,0.00,VWS V14.01,2013-10-25 12:44:00,
2013-10-25 06:49:00,25.4,21.0,30.28,NNW,330,1.0,3.0,83,0.00,,---,0.00,VWS V14.01,2013-10-25 12:49:00,
2013-10-25 06:54:00,25.5,21.1,30.28,NNW,330,0.0,0.0,83,0.00,,---,0.00,VWS V14.01,2013-10-25 12:54:00,
2013-10-25 06:59:00,25.7,21.3,30.28,NNW,330,2.0,2.0,83,0.00,,---,0.00,VWS V14.01,2013-10-25 12:59:00,
2013-10-25 07:04:00,26.1,21.4,30.28,NNW,330,2.0,2.0,82,0.00,,---,0.00,VWS V14.01,2013-10-25 13:04:00,
2013-10-25 07:09:00,26.2,20.9,30.28,NNW,330,0.0,0.0,80,0.00,,---,0.00,VWS V14.01,2013-10-25 13:09:00,
2013-10-25 07:14:00,25.6,20.0,30.28,NNW,330,0.0,0.0,79,0.00,,---,0.00,VWS V14.01,2013-10-25 13:14:00,
2013-10-25 07:19:00,25.3,20.3,30.28,NNW,330,0.0,0.0,81,0.00,,---,0.00,VWS V14.01,2013-10-25 13:19:00,
2013-10-25 07:24:00,25.3,20.9,30.28,NNW,330,2.0,2.0,83,0.00,,---,0.00,VWS V14.01,2013-10-25 13:24:00,
2013-10-25 07:29:00,25.5,21.1,30.28,NNW,330,4.0,4.0,83,0.00,,---,0.00,VWS V14.01,2013-10-25 13:29:00,
2013-10-25 07:34:00,25.5,21.1,30.28,NNW,330,2.0,3.0,83,0.00,,---,0.00,VWS V14.01,2013-10-25 13:34:00,
2013-10-25 07:39:00,25.6,21.2,30.28,NNW,330,0.0,0.0,83,0.00,,---,0.00,VWS V14.01,2013-10-25 13:39:00,
2013-10-25 07:44:00,25.7,21.0,30.28,NNW,330,0.0,0.0,82,0.00,,---,0.00,VWS V14.01,2013-10-25 13:44:00,
2013-10-25 07:49:00,25.7,21.0,30.28,NNW,330,0.0,0.0,82,0.00,,---,0.00,VWS V14.01,2013-10-25 13:49:00,
2013-10-25 07:54:00,25.7,20.7,30.28,NNW,330,0.0,0.0,81,0.00,,---,0.00,VWS V14.01,2013-10-25 13:54:00,
2013-10-25 07:59:00,25.6,20.6,30.28,NNW,330,0.0,0.0,81,0.00,,---,0.00,VWS V14.01,2013-10-25 13:59:00,
2013-10-25 08:04:00,25.5,20.8,30.28,NNW,330,0.0,0.0,82,0.00,,---,0.00,VWS V14.01,2013-10-25 14:04:00,
2013-10-25 08:10:00,25.3,20.6,30.28,NNW,330,0.0,0.0,82,0.00,,---,0.00,VWS V14.01,2013-10-25 14:10:00,
2013-10-25 08:15:00,25.2,20.8,30.28,NNW,330,0.0,0.0,83,0.00,,---,0.00,VWS V14.01,2013-10-25 14:15:00,
2013-10-25 08:20:00,25.6,21.5,30.28,NNW,330,0.0,0.0,84,0.00,,---,0.00,VWS V14.01,2013-10-25 14:20:00,
2013-10-25 08:25:00,26.4,22.0,30.28,NNW,330,0.0,0.0,83,0.00,,---,0.00,VWS V14.01,2013-10-25 14:25:00,
2013-10-25 08:30:00,26.4,21.7,30.29,NNW,330,0.0,0.0,82,0.00,,---,0.00,VWS V14.01,2013-10-25 14:30:00,
2013-10-25 08:35:00,26.7,22.2,30.29,NNW,330,0.0,0.0,83,0.00,,---,0.00,VWS V14.01,2013-10-25 14:35:00,
2013-10-25 08:40:00,26.2,22.3,30.29,NNW,330,0.0,0.0,85,0.00,,---,0.00,VWS V14.01,2013-10-25 14:40:00,
2013-10-25 08:45:00,26.3,23.0,30.29,NNW,330,0.0,0.0,87,0.00,,---,0.00,VWS V14.01,2013-10-25 14:45:00,
2013-10-25 08:50:00,26.9,23.6,30.29,NNW,330,0.0,0.0,87,0.00,,---,0.00,VWS V14.01,2013-10-25 14:50:00,
2013-10-25 08:55:00,27.5,24.4,30.30,NNW,330,0.0,0.0,88,0.00,,---,0.00,VWS V14.01,2013-10-25 14:55:00,
2013-10-25 09:00:00,27.1,23.2,30.30,NNW,330,2.0,2.0,85,0.00,,---,0.00,VWS V14.01,2013-10-25 15:00:00,
2013-10-25 09:05:00,27.3,23.4,30.30,NNW,330,0.0,0.0,85,0.00,,---,0.00,VWS V14.01,2013-10-25 15:05:00,
2013-10-25 09:10:00,27.9,23.4,30.30,NNW,330,0.0,0.0,83,0.00,,---,0.00,VWS V14.01,2013-10-25 15:10:00,
2013-10-25 09:15:00,28.5,24.0,30.30,NNW,330,0.0,0.0,83,0.00,,---,0.00,VWS V14.01,2013-10-25 15:15:00,
2013-10-25 09:20:00,29.2,25.0,30.30,NNW,330,0.0,0.0,84,0.01,,---,0.01,VWS V14.01,2013-10-25 15:20:00,
2013-10-25 09:25:00,29.8,25.6,30.30,NNW,330,0.0,0.0,84,0.01,,---,0.01,VWS V14.01,2013-10-25 15:25:00,
2013-10-25 09:30:00,29.7,25.5,30.30,SW,234,0.0,1.0,84,0.01,,---,0.01,VWS V14.01,2013-10-25 15:30:00,
2013-10-25 09:35:00,30.2,26.5,30.30,SW,234,0.0,0.0,86,0.01,,---,0.01,VWS V14.01,2013-10-25 15:35:00,
2013-10-25 09:40:00,31.1,26.5,30.30,SW,234,0.0,1.0,83,0.01,,---,0.01,VWS V14.01,2013-10-25 15:40:00,
2013-10-25 09:45:00,32.5,27.0,30.29,SW,234,1.0,1.0,80,0.01,,---,0.01,VWS V14.01,2013-10-25 15:45:00,
2013-10-25 09:50:00,33.0,25.6,30.29,SW,234,0.0,0.0,74,0.01,,---,0.01,VWS V14.01,2013-10-25 15:50:00,
2013-10-25 09:55:00,34.4,27.0,30.29,SW,234,0.0,0.0,74,0.01,,---,0.01,VWS V14.01,2013-10-25 15:55:00,
2013-10-25 10:00:00,35.1,25.6,30.28,SW,234,0.0,0.0,68,0.01,,---,0.01,VWS V14.01,2013-10-25 16:00:00,
2013-10-25 10:05:00,36.2,26.7,30.28,SW,234,1.0,1.0,68,0.01,,---,0.01,VWS V14.01,2013-10-25 16:05:00,
2013-10-25 10:10:00,36.4,26.5,30.28,SW,234,0.0,2.0,67,0.01,,---,0.01,VWS V14.01,2013-10-25 16:10:00,
2013-10-25 10:15:00,37.2,26.9,30.27,SW,231,3.0,3.0,66,0.01,,---,0.01,VWS V14.01,2013-10-25 16:15:00,
2013-10-25 10:20:00,38.0,27.7,30.27,SW,231,0.0,2.0,66,0.00,,---,0.01,VWS V14.01,2013-10-25 16:20:00,
2013-10-25 10:25:00,38.3,27.2,30.27,SW,224,3.0,4.0,64,0.00,,---,0.01,VWS V14.01,2013-10-25 16:25:00,
2013-10-25 10:31:00,38.9,28.1,30.27,SW,225,3.0,4.0,65,0.00,,---,0.01,VWS V14.01,2013-10-25 16:31:00,
2013-10-25 10:36:00,39.0,26.7,30.26,SW,227,1.0,4.0,61,0.00,,---,0.01,VWS V14.01,2013-10-25 16:36:00,
2013-10-25 10:41:00,39.8,27.1,30.26,SW,227,2.0,3.0,60,0.00,,---,0.01,VWS V14.01,2013-10-25 16:41:00,
2013-10-25 10:46:00,40.6,27.0,30.26,SSW,198,0.0,4.0,58,0.00,,---,0.01,VWS V14.01,2013-10-25 16:46:00,
2013-10-25 10:51:00,41.3,26.8,30.25,SSW,198,0.0,1.0,56,0.00,,---,0.01,VWS V14.01,2013-10-25 16:51:00,
2013-10-25 10:56:00,42.3,26.9,30.25,SSW,198,0.0,0.0,54,0.00,,---,0.01,VWS V14.01,2013-10-25 16:56:00,
2013-10-25 11:01:00,43.1,27.1,30.25,SSW,198,0.0,0.0,53,0.00,,---,0.01,VWS V14.01,2013-10-25 17:01:00,
2013-10-25 11:06:00,42.7,26.3,30.25,SSW,198,0.0,0.0,52,0.00,,---,0.01,VWS V14.01,2013-10-25 17:06:00,
2013-10-25 11:11:00,43.1,26.2,30.24,SSW,196,0.0,0.0,51,0.00,,---,0.01,VWS V14.01,2013-10-25 17:11:00,
2013-10-25 11:16:00,44.2,27.2,30.24,SSW,196,0.0,1.0,51,0.00,,---,0.01,VWS V14.01,2013-10-25 17:16:00,
2013-10-25 11:21:00,45.1,27.6,30.24,SSW,196,1.0,3.0,50,0.00,,---,0.01,VWS V14.01,2013-10-25 17:21:00,
2013-10-25 11:26:00,44.8,27.3,30.24,SSW,196,0.0,0.0,50,0.00,,---,0.01,VWS V14.01,2013-10-25 17:26:00,
2013-10-25 11:31:00,44.7,26.2,30.23,SSW,196,0.0,1.0,48,0.00,,---,0.01,VWS V14.01,2013-10-25 17:31:00,
2013-10-25 11:36:00,45.1,26.6,30.23,SSW,196,0.0,0.0,48,0.00,,---,0.01,VWS V14.01,2013-10-25 17:36:00,
2013-10-25 11:41:00,45.6,26.5,30.23,ESE,117,3.0,3.0,47,0.00,,---,0.01,VWS V14.01,2013-10-25 17:41:00,
2013-10-25 11:46:00,45.3,26.3,30.23,ESE,116,0.0,1.0,47,0.00,,---,0.01,VWS V14.01,2013-10-25 17:46:00,
2013-10-25 11:51:00,46.0,26.9,30.23,SSE,163,4.0,6.0,47,0.00,,---,0.01,VWS V14.01,2013-10-25 17:51:00,
2013-10-25 11:56:00,45.6,27.1,30.22,SE,142,3.0,5.0,48,0.00,,---,0.01,VWS V14.01,2013-10-25 17:56:00,
2013-10-25 12:01:00,45.7,26.6,30.23,SE,132,6.0,7.0,47,0.00,,---,0.01,VWS V14.01,2013-10-25 18:01:00,
2013-10-25 12:06:00,45.6,26.0,30.22,SSE,150,5.0,7.0,46,0.00,,---,0.01,VWS V14.01,2013-10-25 18:06:00,
2013-10-25 12:11:00,45.4,24.8,30.22,SSE,164,6.0,6.0,44,0.00,,---,0.01,VWS V14.01,2013-10-25 18:11:00,
2013-10-25 12:16:00,45.4,27.4,30.22,SE,135,9.0,10.0,49,0.00,,---,0.01,VWS V14.01,2013-10-25 18:16:00,
2013-10-25 12:21:00,45.2,26.2,30.22,SE,130,5.0,8.0,47,0.01,,---,0.02,VWS V14.01,2013-10-25 18:21:00,
2013-10-25 12:26:00,44.8,25.3,30.22,ESE,111,5.0,10.0,46,0.01,,---,0.02,VWS V14.01,2013-10-25 18:26:00,
2013-10-25 12:31:00,44.1,25.2,30.22,SSE,153,8.0,12.0,47,0.05,,---,0.06,VWS V14.01,2013-10-25 18:31:00,
2013-10-25 12:36:00,44.3,25.4,30.22,SE,135,11.0,11.0,47,0.13,,---,0.14,VWS V14.01,2013-10-25 18:36:00,
2013-10-25 12:41:00,44.3,24.8,30.21,SE,140,12.0,13.0,46,0.19,,---,0.20,VWS V14.01,2013-10-25 18:41:00,
2013-10-25 12:46:00,44.2,24.8,30.21,SE,142,5.0,10.0,46,0.22,,---,0.23,VWS V14.01,2013-10-25 18:46:00,
2013-10-25 12:51:00,44.8,24.8,30.21,SE,137,6.0,10.0,45,0.24,,---,0.25,VWS V14.01,2013-10-25 18:51:00,
2013-10-25 12:56:00,44.0,24.0,30.21,ESE,122,7.0,11.0,45,0.27,,---,0.28,VWS V14.01,2013-10-25 18:56:00,
2013-10-25 13:01:00,42.9,23.0,30.21,SE,142,10.0,10.0,45,0.29,,---,0.30,VWS V14.01,2013-10-25 19:01:00,
2013-10-25 13:06:00,43.1,23.7,30.21,SE,130,5.0,10.0,46,0.35,,---,0.36,VWS V14.01,2013-10-25 19:06:00,
2013-10-25 13:11:00,43.2,23.8,30.21,SE,137,9.0,12.0,46,0.37,,---,0.38,VWS V14.01,2013-10-25 19:11:00,
2013-10-25 13:16:00,42.8,23.5,30.21,SE,141,7.0,11.0,46,0.39,,---,0.40,VWS V14.01,2013-10-25 19:16:00,
2013-10-25 13:21:00,43.0,23.6,30.21,SE,132,7.0,9.0,46,0.41,,---,0.43,VWS V14.01,2013-10-25 19:21:00,
2013-10-25 13:26:00,43.3,23.9,30.21,ESE,120,10.0,10.0,46,0.43,,---,0.45,VWS V14.01,2013-10-25 19:26:00,
2013-10-25 13:31:00,43.3,24.4,30.21,SE,140,11.0,13.0,47,0.39,,---,0.45,VWS V14.01,2013-10-25 19:31:00,
2013-10-25 13:36:00,43.0,23.6,30.21,SSE,156,10.0,10.0,46,0.33,,---,0.47,VWS V14.01,2013-10-25 19:36:00,
2013-10-25 13:41:00,43.1,24.3,30.20,SE,146,8.0,8.0,47,0.27,,---,0.47,VWS V14.01,2013-10-25 19:41:00,
2013-10-25 13:46:00,43.3,25.4,30.20,ESE,122,13.0,13.0,49,0.26,,---,0.49,VWS V14.01,2013-10-25 19:46:00,
2013-10-25 13:51:00,42.9,26.0,30.20,SE,139,6.0,7.0,51,0.29,,---,0.54,VWS V14.01,2013-10-25 19:51:00,
2013-10-25 13:56:00,43.4,26.5,30.20,SE,142,10.0,10.0,51,0.26,,---,0.54,VWS V14.01,2013-10-25 19:56:00,
2013-10-25 14:01:00,42.9,26.5,30.20,SE,141,9.0,13.0,52,0.31,,---,0.61,VWS V14.01,2013-10-25 20:01:00,
2013-10-25 14:06:00,42.5,27.5,30.20,ESE,120,7.0,10.0,55,0.38,,---,0.74,VWS V14.01,2013-10-25 20:06:00,
2013-10-25 14:11:00,42.4,27.8,30.20,SE,135,7.0,7.0,56,0.43,,---,0.81,VWS V14.01,2013-10-25 20:11:00,
2013-10-25 14:16:00,42.8,27.8,30.20,SE,130,11.0,12.0,55,0.45,,---,0.85,VWS V14.01,2013-10-25 20:16:00,
2013-10-25 14:21:00,42.7,28.1,30.19,SE,125,11.0,12.0,56,0.49,,---,0.92,VWS V14.01,2013-10-25 20:21:00,
2013-10-25 14:26:00,42.8,28.2,30.19,SE,142,12.0,13.0,56,0.51,,---,0.95,VWS V14.01,2013-10-25 20:26:00,
2013-10-25 14:31:00,42.7,28.5,30.19,East,97,10.0,10.0,57,0.55,,---,1.00,VWS V14.01,2013-10-25 20:31:00,
2013-10-25 14:36:00,43.1,28.9,30.19,SE,140,9.0,11.0,57,0.57,,---,1.04,VWS V14.01,2013-10-25 20:36:00,
2013-10-25 14:41:00,43.3,28.7,30.19,SE,143,9.0,10.0,56,0.59,,---,1.06,VWS V14.01,2013-10-25 20:41:00,
2013-10-25 14:46:00,43.9,29.2,30.19,SE,132,12.0,12.0,56,0.58,,---,1.07,VWS V14.01,2013-10-25 20:46:00,
2013-10-25 14:51:00,44.5,30.2,30.19,SE,134,11.0,11.0,57,0.55,,---,1.09,VWS V14.01,2013-10-25 20:51:00,
2013-10-25 14:56:00,44.4,29.7,30.19,SE,144,12.0,14.0,56,0.58,,---,1.12,VWS V14.01,2013-10-25 20:56:00,
2013-10-25 15:02:00,43.9,29.2,30.18,ESE,105,9.0,10.0,56,0.64,,---,1.23,VWS V14.01,2013-10-25 21:02:00,
2013-10-25 15:07:00,44.7,30.0,30.19,SE,134,8.0,9.0,56,0.58,,---,1.32,VWS V14.01,2013-10-25 21:07:00,
2013-10-25 15:12:00,45.0,28.9,30.19,ESE,123,9.0,11.0,53,0.54,,---,1.35,VWS V14.01,2013-10-25 21:12:00,
2013-10-25 15:17:00,45.4,30.2,30.19,SE,126,6.0,9.0,55,0.59,,---,1.42,VWS V14.01,2013-10-25 21:17:00,
2013-10-25 15:22:00,45.2,29.6,30.19,ESE,109,4.0,7.0,54,0.53,,---,1.45,VWS V14.01,2013-10-25 21:22:00,
2013-10-25 15:27:00,46.1,29.5,30.19,SE,127,4.0,10.0,52,0.50,,---,1.45,VWS V14.01,2013-10-25 21:27:00,
2013-10-25 15:32:00,45.9,29.3,30.19,SE,133,6.0,9.0,52,0.46,,---,1.46,VWS V14.01,2013-10-25 21:32:00,
2013-10-25 15:37:00,46.1,29.5,30.19,SSE,147,9.0,9.0,52,0.44,,---,1.47,VWS V14.01,2013-10-25 21:37:00,
2013-10-25 15:42:00,46.7,30.0,30.19,SE,134,8.0,9.0,52,0.42,,---,1.48,VWS V14.01,2013-10-25 21:42:00,
2013-10-25 15:47:00,46.7,29.5,30.19,SE,142,9.0,9.0,51,0.44,,---,1.51,VWS V14.01,2013-10-25 21:47:00,
2013-10-25 15:52:00,47.2,30.0,30.19,SE,136,9.0,11.0,51,0.43,,---,1.53,VWS V14.01,2013-10-25 21:52:00,
2013-10-25 15:57:00,47.0,30.8,30.19,SE,130,12.0,13.0,53,0.42,,---,1.54,VWS V14.01,2013-10-25 21:57:00,
2013-10-25 16:02:00,46.9,30.2,30.20,SE,139,10.0,13.0,52,0.35,,---,1.58,VWS V14.01,2013-10-25 22:02:00,
2013-10-25 16:07:00,46.8,31.0,30.20,SSE,150,14.0,14.0,54,0.27,,---,1.59,VWS V14.01,2013-10-25 22:07:00,
2013-10-25 16:12:00,45.9,30.7,30.20,SE,128,11.0,12.0,55,0.36,,---,1.71,VWS V14.01,2013-10-25 22:12:00,
2013-10-25 16:17:00,45.5,29.8,30.20,East,93,14.0,15.0,54,0.31,,---,1.73,VWS V14.01,2013-10-25 22:17:00,
2013-10-25 16:22:00,45.2,30.5,30.20,SE,136,7.0,15.0,56,0.34,,---,1.79,VWS V14.01,2013-10-25 22:22:00,
2013-10-25 16:27:00,45.1,30.4,30.20,East,84,13.0,13.0,56,0.48,,---,1.93,VWS V14.01,2013-10-25 22:27:00,
2013-10-25 16:32:00,44.9,30.6,30.20,ESE,102,14.0,14.0,57,0.52,,---,1.98,VWS V14.01,2013-10-25 22:32:00,
2013-10-25 16:37:00,44.7,30.4,30.21,ESE,123,5.0,9.0,57,0.55,,---,2.02,VWS V14.01,2013-10-25 22:37:00,
2013-10-25 16:42:00,44.5,29.8,30.21,SE,126,9.0,13.0,56,0.55,,---,2.02,VWS V14.01,2013-10-25 22:42:00,
2013-10-25 16:47:00,44.6,30.3,30.21,ESE,103,9.0,9.0,57,0.51,,---,2.02,VWS V14.01,2013-10-25 22:47:00,
2013-10-25 16:52:00,44.8,30.5,30.21,East,99,6.0,6.0,57,0.50,,---,2.03,VWS V14.01,2013-10-25 22:52:00,
2013-10-25 16:57:00,44.9,30.2,30.21,ESE,105,7.0,8.0,56,0.47,,---,2.03,VWS V14.01,2013-10-25 22:57:00,
2013-10-25 17:02:00,44.7,30.4,30.21,East,96,6.0,6.0,57,0.45,,---,2.03,VWS V14.01,2013-10-25 23:02:00,
2013-10-25 17:07:00,44.7,30.4,30.21,ESE,103,4.0,4.0,57,0.44,,---,2.03,VWS V14.01,2013-10-25 23:07:00,
2013-10-25 17:12:00,44.8,30.9,30.21,SE,134,3.0,4.0,58,0.32,,---,2.03,VWS V14.01,2013-10-25 23:12:00,
2013-10-25 17:17:00,44.7,30.9,30.21,SSE,149,6.0,6.0,58,0.30,,---,2.03,VWS V14.01,2013-10-25 23:17:00,
2013-10-25 17:22:00,44.6,30.8,30.21,SSE,149,2.0,5.0,58,0.24,,---,2.03,VWS V14.01,2013-10-25 23:22:00,
2013-10-25 17:27:00,44.5,30.7,30.21,East,98,5.0,6.0,58,0.10,,---,2.03,VWS V14.01,2013-10-25 23:27:00,
2013-10-25 17:32:00,44.4,31.0,30.21,ESE,115,3.0,3.0,59,0.05,,---,2.03,VWS V14.01,2013-10-25 23:32:00,
2013-10-25 17:37:00,44.2,30.8,30.21,SE,140,3.0,4.0,59,0.01,,---,2.03,VWS V14.01,2013-10-25 23:37:00,
2013-10-25 17:42:00,44.1,31.1,30.21,SE,140,3.0,3.0,60,0.01,,---,2.03,VWS V14.01,2013-10-25 23:42:00,
2013-10-25 17:47:00,44.0,31.0,30.22,SE,140,0.0,2.0,60,0.01,,---,2.03,VWS V14.01,2013-10-25 23:47:00,
2013-10-25 17:52:00,43.9,30.9,30.22,SE,142,3.0,4.0,60,0.00,,---,2.03,VWS V14.01,2013-10-25 23:52:00,
2013-10-25 17:57:00,43.9,31.3,30.22,SE,142,4.0,4.0,61,0.00,,---,2.03,VWS V14.01,2013-10-25 23:57:00,
2013-10-25 18:02:00,43.7,31.5,30.22,SE,142,3.0,3.0,62,0.00,,---,2.03,VWS V14.01,2013-10-26 00:02:00,
2013-10-25 18:07:00,43.4,31.3,30.23,ESE,123,0.0,1.0,62,0.00,,---,2.03,VWS V14.01,2013-10-26 00:07:00,
2013-10-25 18:12:00,43.1,31.4,30.23,ESE,122,0.0,0.0,63,0.00,,---,2.03,VWS V14.01,2013-10-26 00:12:00,
2013-10-25 18:17:00,42.9,31.2,30.23,SE,136,0.0,1.0,63,0.00,,---,2.03,VWS V14.01,2013-10-26 00:17:00,
2013-10-25 18:23:00,42.5,31.6,30.23,South,186,3.0,3.0,65,0.00,,---,2.03,VWS V14.01,2013-10-26 00:23:00,
2013-10-25 18:28:00,42.2,31.3,30.24,SE,132,3.0,4.0,65,0.00,,---,2.03,VWS V14.01,2013-10-26 00:28:00,
2013-10-25 18:33:00,41.8,31.3,30.24,SE,132,0.0,0.0,66,0.00,,---,2.03,VWS V14.01,2013-10-26 00:33:00,
2013-10-25 18:38:00,41.5,31.4,30.25,SE,132,0.0,1.0,67,0.00,,---,2.03,VWS V14.01,2013-10-26 00:38:00,
2013-10-25 18:43:00,41.3,31.5,30.25,SE,132,2.0,2.0,68,0.00,,---,2.03,VWS V14.01,2013-10-26 00:43:00,
2013-10-25 18:48:00,41.1,31.4,30.25,SE,132,0.0,0.0,68,0.00,,---,2.03,VWS V14.01,2013-10-26 00:48:00,
2013-10-25 18:53:00,40.8,31.4,30.25,SE,132,0.0,0.0,69,0.00,,---,2.03,VWS V14.01,2013-10-26 00:53:00,
2013-10-25 18:58:00,40.5,31.1,30.26,SE,132,0.0,0.0,69,0.00,,---,2.03,VWS V14.01,2013-10-26 00:58:00,
2013-10-25 19:03:00,40.3,31.3,30.26,SE,132,2.0,2.0,70,0.00,,---,2.03,VWS V14.01,2013-10-26 01:03:00,
2013-10-25 19:08:00,40.1,31.5,30.26,SE,132,0.0,0.0,71,0.00,,---,2.03,VWS V14.01,2013-10-26 01:08:00,
2013-10-25 19:13:00,39.9,31.6,30.26,SE,132,0.0,0.0,72,0.00,,---,2.03,VWS V14.01,2013-10-26 01:13:00,
2013-10-25 19:18:00,39.8,31.5,30.26,SE,132,0.0,2.0,72,0.00,,---,2.03,VWS V14.01,2013-10-26 01:18:00,
2013-10-25 19:23:00,39.6,31.7,30.26,SE,132,0.0,2.0,73,0.00,,---,2.03,VWS V14.01,2013-10-26 01:23:00,
2013-10-25 19:28:00,39.4,31.8,30.26,SE,132,2.0,4.0,74,0.00,,---,2.03,VWS V14.01,2013-10-26 01:28:00,
2013-10-25 19:33:00,39.3,31.7,30.27,SE,132,0.0,0.0,74,0.00,,---,2.03,VWS V14.01,2013-10-26 01:33:00,
2013-10-25 19:38:00,39.1,31.5,30.27,SE,132,0.0,0.0,74,0.00,,---,2.03,VWS V14.01,2013-10-26 01:38:00,
2013-10-25 19:43:00,38.9,31.3,30.27,SE,132,0.0,0.0,74,0.00,,---,2.03,VWS V14.01,2013-10-26 01:43:00,
2013-10-25 19:48:00,38.6,31.7,30.27,SE,132,0.0,0.0,76,0.00,,---,2.03,VWS V14.01,2013-10-26 01:48:00,
2013-10-25 19:53:00,38.1,31.5,30.27,SE,132,0.0,2.0,77,0.00,,---,2.03,VWS V14.01,2013-10-26 01:53:00,
2013-10-25 19:58:00,37.9,31.7,30.27,SE,132,0.0,2.0,78,0.00,,---,2.03,VWS V14.01,2013-10-26 01:58:00,
2013-10-25 20:03:00,37.6,31.7,30.28,SE,132,0.0,0.0,79,0.00,,---,2.03,VWS V14.01,2013-10-26 02:03:00,
2013-10-25 20:08:00,37.4,31.8,30.28,SE,137,0.0,4.0,80,0.00,,---,2.03,VWS V14.01,2013-10-26 02:08:00,
2013-10-25 20:13:00,37.0,31.4,30.28,SSE,158,4.0,4.0,80,0.00,,---,2.03,VWS V14.01,2013-10-26 02:13:00,
2013-10-25 20:18:00,36.7,31.1,30.28,SSW,207,3.0,3.0,80,0.00,,---,2.03,VWS V14.01,2013-10-26 02:18:00,
2013-10-25 20:23:00,36.4,30.8,30.28,SSW,207,0.0,0.0,80,0.00,,---,2.03,VWS V14.01,2013-10-26 02:23:00,
2013-10-25 20:28:00,36.2,31.2,30.28,ESE,113,7.0,7.0,82,0.00,,---,2.03,VWS V14.01,2013-10-26 02:28:00,
2013-10-25 20:33:00,36.6,32.5,30.29,East,99,6.0,8.0,85,0.00,,---,2.03,VWS V14.01,2013-10-26 02:33:00,
2013-10-25 20:38:00,37.0,32.6,30.29,SE,132,2.0,2.0,84,0.00,,---,2.03,VWS V14.01,2013-10-26 02:38:00,
2013-10-25 20:43:00,36.8,32.1,30.29,SE,136,0.0,0.0,83,0.00,,---,2.03,VWS V14.01,2013-10-26 02:43:00,
2013-10-25 20:48:00,36.6,31.6,30.29,SE,137,1.0,2.0,82,0.00,,---,2.03,VWS V14.01,2013-10-26 02:48:00,
2013-10-25 20:53:00,36.3,31.3,30.29,SE,137,0.0,0.0,82,0.00,,---,2.03,VWS V14.01,2013-10-26 02:53:00,
2013-10-25 20:58:00,36.1,31.1,30.29,SE,137,0.0,0.0,82,0.00,,---,2.03,VWS V14.01,2013-10-26 02:58:00,
2013-10-25 21:03:00,35.6,30.7,30.30,SE,137,0.0,0.0,82,0.00,,---,2.03,VWS V14.01,2013-10-26 03:03:00,
2013-10-25 21:08:00,35.2,30.6,30.29,SE,137,2.0,2.0,83,0.00,,---,2.03,VWS V14.01,2013-10-26 03:08:00,
2013-10-25 21:13:00,35.0,30.4,30.30,SE,137,3.0,3.0,83,0.00,,---,2.03,VWS V14.01,2013-10-26 03:13:00,
2013-10-25 21:18:00,34.6,30.3,30.30,North,5,5.0,5.0,84,0.00,,---,2.03,VWS V14.01,2013-10-26 03:18:00,
2013-10-25 21:23:00,34.2,29.6,30.30,North,5,0.0,0.0,83,0.00,,---,2.03,VWS V14.01,2013-10-26 03:23:00,
2013-10-25 21:28:00,33.7,29.1,30.30,NNW,342,6.0,6.0,83,0.00,,---,2.03,VWS V14.01,2013-10-26 03:28:00,
2013-10-25 21:33:00,33.2,28.9,30.31,NNW,338,1.0,3.0,84,0.00,,---,2.03,VWS V14.01,2013-10-26 03:33:00,
2013-10-25 21:38:00,33.0,29.3,30.31,NNW,338,0.0,0.0,86,0.00,,---,2.03,VWS V14.01,2013-10-26 03:38:00,
2013-10-25 21:43:00,32.9,29.2,30.31,NNW,338,0.0,0.0,86,0.00,,---,2.03,VWS V14.01,2013-10-26 03:43:00,
2013-10-25 21:49:00,32.8,29.4,30.31,NNW,338,0.0,0.0,87,0.00,,---,2.03,VWS V14.01,2013-10-26 03:49:00,
2013-10-25 21:54:00,32.7,29.3,30.31,NNW,338,5.0,5.0,87,0.00,,---,2.03,VWS V14.01,2013-10-26 03:54:00,
2013-10-25 21:59:00,32.6,29.2,30.31,NNW,338,0.0,0.0,87,0.00,,---,2.03,VWS V14.01,2013-10-26 03:59:00,
2013-10-25 22:01:00,32.5,29.1,30.31,NNW,338,3.0,4.0,87,0.00,,---,2.03,VWS V14.01,2013-10-26 04:01:00,
2013-10-25 22:02:00,32.4,28.7,30.31,NNW,338,6.0,6.0,86,0.00,,---,2.03,VWS V14.01,2013-10-26 04:02:00,
2013-10-25 22:07:00,32.4,29.2,30.31,NNW,328,0.0,0.0,88,0.00,,---,2.03,VWS V14.01,2013-10-26 04:07:00,
2013-10-25 22:12:00,32.3,29.1,30.31,NNW,328,0.0,0.0,88,0.00,,---,2.03,VWS V14.01,2013-10-26 04:12:00,
2013-10-25 22:17:00,32.1,28.7,30.31,NNW,328,1.0,2.0,87,0.00,,---,2.03,VWS V14.01,2013-10-26 04:17:00,
2013-10-25 22:22:00,32.0,28.6,30.31,NNW,328,0.0,2.0,87,0.00,,---,2.03,VWS V14.01,2013-10-26 04:22:00,
2013-10-25 22:27:00,31.7,28.3,30.32,NNW,328,3.0,3.0,87,0.00,,---,2.03,VWS V14.01,2013-10-26 04:27:00,
2013-10-25 22:32:00,31.4,28.0,30.32,NNW,330,6.0,6.0,87,0.00,,---,2.03,VWS V14.01,2013-10-26 04:32:00,
2013-10-25 22:38:00,31.1,27.7,30.32,NNW,330,8.0,8.0,87,0.00,,---,2.03,VWS V14.01,2013-10-26 04:38:00,
2013-10-25 22:43:00,31.1,28.0,30.32,NNW,331,5.0,7.0,88,0.00,,---,2.03,VWS V14.01,2013-10-26 04:43:00,
2013-10-25 22:48:00,31.2,27.8,30.32,NNW,329,5.0,5.0,87,0.00,,---,2.03,VWS V14.01,2013-10-26 04:48:00,
2013-10-25 22:53:00,31.5,28.6,30.33,NW,323,5.0,5.0,89,0.00,,---,2.03,VWS V14.01,2013-10-26 04:53:00,
2013-10-25 22:58:00,31.7,28.8,30.32,NW,323,0.0,0.0,89,0.00,,---,2.03,VWS V14.01,2013-10-26 04:58:00,
2013-10-25 23:03:00,31.7,28.6,30.32,NW,323,1.0,3.0,88,0.00,,---,2.03,VWS V14.01,2013-10-26 05:03:00,
2013-10-25 23:08:00,31.6,28.5,30.32,NW,323,0.0,0.0,88,0.00,,---,2.03,VWS V14.01,2013-10-26 05:08:00,
2013-10-25 23:13:00,31.5,28.4,30.32,NW,323,0.0,2.0,88,0.00,,---,2.03,VWS V14.01,2013-10-26 05:13:00,
2013-10-25 23:18:00,31.4,28.3,30.32,NW,323,0.0,0.0,88,0.00,,---,2.03,VWS V14.01,2013-10-26 05:18:00,
2013-10-25 23:23:00,31.3,28.2,30.32,NW,323,1.0,1.0,88,0.00,,---,2.03,VWS V14.01,2013-10-26 05:23:00,
2013-10-25 23:28:00,31.2,28.1,30.32,NW,323,3.0,4.0,88,0.00,,---,2.03,VWS V14.01,2013-10-26 05:28:00,
2013-10-25 23:33:00,31.3,28.4,30.32,NW,323,3.0,4.0,89,0.00,,---,2.03,VWS V14.01,2013-10-26 05:33:00,
2013-10-25 23:38:00,31.4,28.5,30.32,NW,323,3.0,4.0,89,0.00,,---,2.03,VWS V14.01,2013-10-26 05:38:00,
2013-10-25 23:43:00,31.4,28.5,30.32,NW,323,4.0,4.0,89,0.00,,---,2.03,VWS V14.01,2013-10-26 05:43:00,
2013-10-25 23:48:00,31.4,28.5,30.32,NW,323,3.0,4.0,89,0.00,,---,2.03,VWS V14.01,2013-10-26 05:48:00,
2013-10-25 23:53:00,31.6,29.0,30.32,NW,323,5.0,5.0,90,0.00,,---,2.03,VWS V14.01,2013-10-26 05:53:00,
2013-10-25 23:58:00,31.8,29.2,30.32,NW,323,5.0,6.0,90,0.00,,---,2.03,VWS V14.01,2013-10-26 05:58:00,